createdAt,value
2022-11-07T00:13:29.896Z,10.78
2022-11-07T00:28:21.053Z,10.89
2022-11-07T00:43:12.722Z,11.02
2022-11-07T00:58:03.528Z,11.17
2022-11-07T01:12:55.038Z,11.37
2022-11-07T01:27:47.127Z,11.54
2022-11-07T01:42:37.790Z,11.61
2022-11-07T01:57:49.935Z,11.71
2022-11-07T02:12:46.248Z,11.75
2022-11-07T02:27:37.699Z,11.79
2022-11-07T02:42:28.923Z,11.78
2022-11-07T02:57:19.958Z,11.80
2022-11-07T03:12:11.918Z,11.82
2022-11-07T03:27:03.869Z,11.86
2022-11-07T03:41:55.822Z,11.83
2022-11-07T03:56:46.162Z,11.84
2022-11-07T04:11:55.888Z,11.82
2022-11-07T04:27:11.498Z,11.82
2022-11-07T04:42:07.966Z,11.88
2022-11-07T04:56:59.154Z,11.94
2022-11-07T05:11:49.737Z,11.93
2022-11-07T05:26:41.491Z,11.94
2022-11-07T05:41:34.223Z,11.93
2022-11-07T05:56:25.177Z,11.93
2022-11-07T06:11:16.709Z,11.87
2022-11-07T06:26:08.161Z,11.90
2022-11-07T06:41:07.974Z,11.98
2022-11-07T06:56:01.938Z,12.03
2022-11-07T07:10:53.319Z,12.03
2022-11-07T07:25:45.017Z,12.17
2022-11-07T07:40:39.030Z,12.35
2022-11-07T07:55:29.991Z,12.42
2022-11-07T08:25:16.096Z,12.69
2022-11-07T08:40:08.273Z,12.91
2022-11-07T08:55:01.169Z,13.04
2022-11-07T09:09:53.672Z,13.35
2022-11-07T09:24:46.270Z,13.71
2022-11-07T09:39:37.584Z,13.95
2022-11-07T09:54:31.768Z,14.14
2022-11-07T10:09:56.115Z,14.33
2022-11-07T10:25:13.030Z,14.46
2022-11-07T10:40:11.978Z,14.58
2022-11-07T10:55:12.669Z,14.69
2022-11-07T11:10:16.423Z,14.74
2022-11-07T11:25:15.377Z,14.81
2022-11-07T11:40:12.148Z,14.96
2022-11-07T11:55:15.113Z,15.48
2022-11-07T12:10:28.759Z,15.97
2022-11-07T12:25:37.616Z,16.11
2022-11-07T12:40:42.559Z,16.15
2022-11-07T12:55:43.402Z,16.44
2022-11-07T13:10:50.315Z,16.51
2022-11-07T13:25:49.935Z,16.21
2022-11-07T13:40:47.253Z,16.08
2022-11-07T13:55:41.601Z,15.90
2022-11-07T14:10:38.619Z,15.73
2022-11-07T14:25:33.313Z,15.70
2022-11-07T14:40:25.019Z,15.62
2022-11-07T14:55:25.361Z,15.59
2022-11-07T15:10:33.075Z,15.48
2022-11-07T15:25:37.474Z,15.38
2022-11-07T15:40:34.979Z,15.31
2022-11-07T15:55:25.737Z,15.16
2022-11-07T16:10:24.049Z,15.00
2022-11-07T16:25:22.894Z,14.86
2022-11-07T16:40:16.602Z,14.80
2022-11-07T16:55:06.445Z,14.74
2022-11-07T17:24:53.315Z,14.64
2022-11-07T17:39:43.740Z,14.58
2022-11-07T17:54:35.605Z,14.50
2022-11-07T18:09:28.440Z,14.35
2022-11-07T18:24:19.981Z,14.25
2022-11-07T18:39:16.332Z,14.19
2022-11-07T18:54:11.360Z,14.04
2022-11-07T19:09:02.967Z,13.86
2022-11-07T19:23:54.142Z,13.68
2022-11-07T19:38:44.575Z,13.55
2022-11-07T19:53:35.499Z,13.43
2022-11-07T20:08:27.267Z,13.38
2022-11-07T20:23:20.629Z,13.37
2022-11-07T20:38:14.278Z,13.37
2022-11-07T21:08:12.529Z,13.11
2022-11-07T21:23:03.623Z,12.93
2022-11-07T21:37:56.159Z,12.88
2022-11-07T21:52:49.445Z,12.79
2022-11-07T22:07:47.849Z,12.60
2022-11-07T22:22:36.761Z,12.45
2022-11-07T22:37:27.374Z,12.26
2022-11-07T22:52:18.054Z,11.99
2022-11-07T23:07:09.575Z,11.78
2022-11-07T23:22:00.871Z,11.62
2022-11-07T23:36:52.028Z,11.37
2022-11-07T23:51:42.174Z,11.26
